sensor_id;sensor_type;location;lat;lon;timestamp;P1;durP1;ratioP1;P2;durP2;ratioP2
45684;SDS011;46836;48.388;16.210;2024-02-15T00:01:10;8.15;;;6.50;;
45684;SDS011;46836;48.388;16.210;2024-02-15T00:03:37;8.30;;;6.28;;
45684;SDS011;46836;48.388;16.210;2024-02-15T00:06:04;9.13;;;6.88;;
45684;SDS011;46836;48.388;16.210;2024-02-15T00:08:32;6.95;;;6.20;;
45684;SDS011;46836;48.388;16.210;2024-02-15T00:10:59;8.20;;;6.97;;
45684;SDS011;46836;48.388;16.210;2024-02-15T00:13:26;7.63;;;6.85;;
45684;SDS011;46836;48.388;16.210;2024-02-15T00:15:53;9.73;;;6.28;;
45684;SDS011;46836;48.388;16.210;2024-02-15T00:18:21;10.82;;;6.85;;
45684;SDS011;46836;48.388;16.210;2024-02-15T00:20:48;10.45;;;7.18;;
45684;SDS011;46836;48.388;16.210;2024-02-15T00:23:15;9.65;;;7.38;;
45684;SDS011;46836;48.388;16.210;2024-02-15T00:25:43;7.95;;;7.10;;
45684;SDS011;46836;48.388;16.210;2024-02-15T00:28:13;11.95;;;7.25;;
45684;SDS011;46836;48.388;16.210;2024-02-15T00:30:40;13.43;;;6.72;;
45684;SDS011;46836;48.388;16.210;2024-02-15T00:33:08;11.02;;;7.47;;
45684;SDS011;46836;48.388;16.210;2024-02-15T00:35:36;8.95;;;6.70;;
45684;SDS011;46836;48.388;16.210;2024-02-15T00:38:03;8.13;;;6.75;;
45684;SDS011;46836;48.388;16.210;2024-02-15T00:40:30;7.75;;;6.43;;
45684;SDS011;46836;48.388;16.210;2024-02-15T00:42:57;11.88;;;8.25;;
45684;SDS011;46836;48.388;16.210;2024-02-15T00:45:25;11.43;;;7.28;;
45684;SDS011;46836;48.388;16.210;2024-02-15T00:47:52;11.52;;;7.03;;
45684;SDS011;46836;48.388;16.210;2024-02-15T00:50:20;8.45;;;7.45;;
45684;SDS011;46836;48.388;16.210;2024-02-15T00:52:48;9.32;;;7.68;;
45684;SDS011;46836;48.388;16.210;2024-02-15T00:55:15;9.25;;;7.72;;
45684;SDS011;46836;48.388;16.210;2024-02-15T00:57:43;8.45;;;6.65;;
45684;SDS011;46836;48.388;16.210;2024-02-15T01:00:10;12.73;;;8.15;;
45684;SDS011;46836;48.388;16.210;2024-02-15T01:02:38;9.90;;;7.22;;
45684;SDS011;46836;48.388;16.210;2024-02-15T01:05:05;8.75;;;6.97;;
45684;SDS011;46836;48.388;16.210;2024-02-15T01:07:33;10.05;;;8.00;;
45684;SDS011;46836;48.388;16.210;2024-02-15T01:10:00;10.32;;;8.00;;
45684;SDS011;46836;48.388;16.210;2024-02-15T01:12:27;12.45;;;8.43;;
45684;SDS011;46836;48.388;16.210;2024-02-15T01:14:54;9.30;;;7.50;;
45684;SDS011;46836;48.388;16.210;2024-02-15T01:17:22;10.23;;;7.78;;
45684;SDS011;46836;48.388;16.210;2024-02-15T01:19:50;8.15;;;6.78;;
45684;SDS011;46836;48.388;16.210;2024-02-15T01:22:17;9.60;;;7.45;;
45684;SDS011;46836;48.388;16.210;2024-02-15T01:24:45;11.27;;;8.32;;
45684;SDS011;46836;48.388;16.210;2024-02-15T01:27:12;9.13;;;6.63;;
45684;SDS011;46836;48.388;16.210;2024-02-15T01:29:39;9.00;;;7.00;;
45684;SDS011;46836;48.388;16.210;2024-02-15T01:32:06;11.82;;;7.85;;
45684;SDS011;46836;48.388;16.210;2024-02-15T01:34:33;13.27;;;7.28;;
45684;SDS011;46836;48.388;16.210;2024-02-15T01:37:00;13.10;;;7.10;;
45684;SDS011;46836;48.388;16.210;2024-02-15T01:39:27;9.05;;;7.05;;
45684;SDS011;46836;48.388;16.210;2024-02-15T01:41:54;9.80;;;7.97;;
45684;SDS011;46836;48.388;16.210;2024-02-15T01:44:23;8.98;;;7.03;;
45684;SDS011;46836;48.388;16.210;2024-02-15T01:46:51;7.53;;;6.57;;
45684;SDS011;46836;48.388;16.210;2024-02-15T01:49:23;10.43;;;7.20;;
45684;SDS011;46836;48.388;16.210;2024-02-15T01:51:51;7.70;;;6.85;;
45684;SDS011;46836;48.388;16.210;2024-02-15T01:54:21;11.05;;;7.30;;
45684;SDS011;46836;48.388;16.210;2024-02-15T01:56:48;10.45;;;6.68;;
45684;SDS011;46836;48.388;16.210;2024-02-15T01:59:17;12.38;;;7.22;;
45684;SDS011;46836;48.388;16.210;2024-02-15T02:01:45;8.07;;;6.40;;
45684;SDS011;46836;48.388;16.210;2024-02-15T02:04:13;9.80;;;7.53;;
45684;SDS011;46836;48.388;16.210;2024-02-15T02:06:40;8.98;;;7.28;;
45684;SDS011;46836;48.388;16.210;2024-02-15T02:09:11;10.40;;;8.50;;
45684;SDS011;46836;48.388;16.210;2024-02-15T02:11:39;9.80;;;7.63;;
45684;SDS011;46836;48.388;16.210;2024-02-15T02:14:17;7.65;;;6.15;;
45684;SDS011;46836;48.388;16.210;2024-02-15T02:16:46;10.65;;;7.15;;
45684;SDS011;46836;48.388;16.210;2024-02-15T02:19:14;8.65;;;7.13;;
45684;SDS011;46836;48.388;16.210;2024-02-15T02:21:43;8.70;;;7.40;;
45684;SDS011;46836;48.388;16.210;2024-02-15T02:24:14;7.55;;;6.75;;
45684;SDS011;46836;48.388;16.210;2024-02-15T02:26:48;7.53;;;6.20;;
45684;SDS011;46836;48.388;16.210;2024-02-15T02:32:12;10.00;;;6.05;;
45684;SDS011;46836;48.388;16.210;2024-02-15T02:34:39;8.10;;;5.93;;
45684;SDS011;46836;48.388;16.210;2024-02-15T02:37:10;8.38;;;6.90;;
45684;SDS011;46836;48.388;16.210;2024-02-15T02:39:40;10.05;;;6.60;;
45684;SDS011;46836;48.388;16.210;2024-02-15T02:42:10;9.50;;;7.20;;
45684;SDS011;46836;48.388;16.210;2024-02-15T02:44:37;7.43;;;6.45;;
45684;SDS011;46836;48.388;16.210;2024-02-15T02:47:04;11.10;;;6.75;;
45684;SDS011;46836;48.388;16.210;2024-02-15T02:49:31;10.07;;;7.47;;
45684;SDS011;46836;48.388;16.210;2024-02-15T02:51:58;10.65;;;7.00;;
45684;SDS011;46836;48.388;16.210;2024-02-15T02:54:25;10.20;;;7.70;;
45684;SDS011;46836;48.388;16.210;2024-02-15T02:56:52;8.93;;;7.35;;
45684;SDS011;46836;48.388;16.210;2024-02-15T02:59:19;10.02;;;8.07;;
45684;SDS011;46836;48.388;16.210;2024-02-15T03:01:46;9.75;;;7.53;;
45684;SDS011;46836;48.388;16.210;2024-02-15T03:04:17;7.93;;;7.10;;
45684;SDS011;46836;48.388;16.210;2024-02-15T03:06:44;10.85;;;7.93;;
45684;SDS011;46836;48.388;16.210;2024-02-15T03:09:11;9.90;;;7.60;;
45684;SDS011;46836;48.388;16.210;2024-02-15T03:11:41;12.98;;;7.15;;
45684;SDS011;46836;48.388;16.210;2024-02-15T03:14:09;9.32;;;7.57;;
45684;SDS011;46836;48.388;16.210;2024-02-15T03:16:37;9.25;;;7.30;;
45684;SDS011;46836;48.388;16.210;2024-02-15T03:19:04;9.55;;;7.20;;
45684;SDS011;46836;48.388;16.210;2024-02-15T03:21:31;8.55;;;7.18;;
45684;SDS011;46836;48.388;16.210;2024-02-15T03:23:59;10.20;;;7.75;;
45684;SDS011;46836;48.388;16.210;2024-02-15T03:26:29;10.55;;;7.63;;
45684;SDS011;46836;48.388;16.210;2024-02-15T03:29:04;12.50;;;7.68;;
45684;SDS011;46836;48.388;16.210;2024-02-15T03:31:31;9.52;;;7.13;;
45684;SDS011;46836;48.388;16.210;2024-02-15T03:34:00;9.73;;;7.38;;
45684;SDS011;46836;48.388;16.210;2024-02-15T03:36:27;12.52;;;8.20;;
45684;SDS011;46836;48.388;16.210;2024-02-15T03:38:55;9.95;;;7.40;;
45684;SDS011;46836;48.388;16.210;2024-02-15T03:41:22;9.00;;;7.43;;
45684;SDS011;46836;48.388;16.210;2024-02-15T03:43:49;9.15;;;7.15;;
45684;SDS011;46836;48.388;16.210;2024-02-15T03:46:17;9.95;;;7.93;;
45684;SDS011;46836;48.388;16.210;2024-02-15T03:48:44;8.55;;;7.65;;
45684;SDS011;46836;48.388;16.210;2024-02-15T03:51:18;10.65;;;7.22;;
45684;SDS011;46836;48.388;16.210;2024-02-15T03:53:46;9.45;;;7.38;;
45684;SDS011;46836;48.388;16.210;2024-02-15T03:56:19;8.38;;;7.32;;
45684;SDS011;46836;48.388;16.210;2024-02-15T03:58:47;9.30;;;7.70;;
45684;SDS011;46836;48.388;16.210;2024-02-15T04:01:17;11.35;;;7.82;;
45684;SDS011;46836;48.388;16.210;2024-02-15T04:03:44;9.98;;;7.97;;
45684;SDS011;46836;48.388;16.210;2024-02-15T04:06:11;11.05;;;6.55;;
45684;SDS011;46836;48.388;16.210;2024-02-15T04:08:38;12.75;;;8.48;;
45684;SDS011;46836;48.388;16.210;2024-02-15T04:11:05;12.40;;;8.55;;
45684;SDS011;46836;48.388;16.210;2024-02-15T04:13:36;10.52;;;7.68;;
45684;SDS011;46836;48.388;16.210;2024-02-15T04:16:04;13.98;;;9.68;;
45684;SDS011;46836;48.388;16.210;2024-02-15T04:18:31;13.35;;;9.30;;
45684;SDS011;46836;48.388;16.210;2024-02-15T04:20:59;14.57;;;9.00;;
45684;SDS011;46836;48.388;16.210;2024-02-15T04:23:26;11.00;;;8.43;;
45684;SDS011;46836;48.388;16.210;2024-02-15T04:25:53;10.43;;;8.55;;
45684;SDS011;46836;48.388;16.210;2024-02-15T04:28:20;11.20;;;8.05;;
45684;SDS011;46836;48.388;16.210;2024-02-15T04:30:48;9.18;;;7.63;;
45684;SDS011;46836;48.388;16.210;2024-02-15T04:33:15;9.32;;;8.27;;
45684;SDS011;46836;48.388;16.210;2024-02-15T04:35:43;10.57;;;8.68;;
45684;SDS011;46836;48.388;16.210;2024-02-15T04:38:11;14.32;;;8.35;;
45684;SDS011;46836;48.388;16.210;2024-02-15T04:40:38;9.55;;;8.55;;
45684;SDS011;46836;48.388;16.210;2024-02-15T04:43:06;12.00;;;8.18;;
45684;SDS011;46836;48.388;16.210;2024-02-15T04:45:35;11.07;;;8.85;;
45684;SDS011;46836;48.388;16.210;2024-02-15T04:48:02;10.43;;;8.38;;
45684;SDS011;46836;48.388;16.210;2024-02-15T04:50:29;11.15;;;8.30;;
45684;SDS011;46836;48.388;16.210;2024-02-15T04:52:56;10.15;;;8.93;;
45684;SDS011;46836;48.388;16.210;2024-02-15T04:55:23;14.55;;;9.25;;
45684;SDS011;46836;48.388;16.210;2024-02-15T04:57:52;12.80;;;9.35;;
45684;SDS011;46836;48.388;16.210;2024-02-15T05:00:24;12.82;;;9.57;;
45684;SDS011;46836;48.388;16.210;2024-02-15T05:02:52;13.52;;;9.35;;
45684;SDS011;46836;48.388;16.210;2024-02-15T05:05:20;13.30;;;9.73;;
45684;SDS011;46836;48.388;16.210;2024-02-15T05:07:48;10.57;;;8.10;;
45684;SDS011;46836;48.388;16.210;2024-02-15T05:10:15;13.23;;;9.45;;
45684;SDS011;46836;48.388;16.210;2024-02-15T05:12:42;15.65;;;11.45;;
45684;SDS011;46836;48.388;16.210;2024-02-15T05:15:09;12.60;;;9.68;;
45684;SDS011;46836;48.388;16.210;2024-02-15T05:17:39;15.27;;;11.00;;
45684;SDS011;46836;48.388;16.210;2024-02-15T05:20:08;12.88;;;10.70;;
45684;SDS011;46836;48.388;16.210;2024-02-15T05:22:40;13.95;;;11.07;;
45684;SDS011;46836;48.388;16.210;2024-02-15T05:25:16;15.57;;;11.15;;
45684;SDS011;46836;48.388;16.210;2024-02-15T05:27:53;21.45;;;11.68;;
45684;SDS011;46836;48.388;16.210;2024-02-15T05:30:22;17.30;;;11.20;;
45684;SDS011;46836;48.388;16.210;2024-02-15T05:32:50;14.10;;;11.90;;
45684;SDS011;46836;48.388;16.210;2024-02-15T05:35:20;14.70;;;11.40;;
45684;SDS011;46836;48.388;16.210;2024-02-15T05:37:47;17.90;;;11.65;;
45684;SDS011;46836;48.388;16.210;2024-02-15T05:40:15;19.35;;;12.40;;
45684;SDS011;46836;48.388;16.210;2024-02-15T05:42:42;17.02;;;11.73;;
45684;SDS011;46836;48.388;16.210;2024-02-15T05:45:31;17.08;;;12.10;;
45684;SDS011;46836;48.388;16.210;2024-02-15T05:48:04;15.82;;;11.90;;
45684;SDS011;46836;48.388;16.210;2024-02-15T05:50:35;14.25;;;12.40;;
45684;SDS011;46836;48.388;16.210;2024-02-15T05:53:03;17.25;;;12.13;;
45684;SDS011;46836;48.388;16.210;2024-02-15T05:55:30;17.08;;;12.10;;
45684;SDS011;46836;48.388;16.210;2024-02-15T05:58:01;18.48;;;12.93;;
45684;SDS011;46836;48.388;16.210;2024-02-15T06:00:29;17.00;;;11.70;;
45684;SDS011;46836;48.388;16.210;2024-02-15T06:02:57;19.65;;;11.77;;
45684;SDS011;46836;48.388;16.210;2024-02-15T06:05:24;14.98;;;11.07;;
45684;SDS011;46836;48.388;16.210;2024-02-15T06:07:51;18.52;;;12.90;;
45684;SDS011;46836;48.388;16.210;2024-02-15T06:10:18;18.88;;;13.20;;
45684;SDS011;46836;48.388;16.210;2024-02-15T06:12:45;15.85;;;11.20;;
45684;SDS011;46836;48.388;16.210;2024-02-15T06:15:12;20.30;;;12.88;;
45684;SDS011;46836;48.388;16.210;2024-02-15T06:17:43;16.05;;;12.10;;
45684;SDS011;46836;48.388;16.210;2024-02-15T06:20:14;16.65;;;11.55;;
45684;SDS011;46836;48.388;16.210;2024-02-15T06:22:47;16.33;;;12.90;;
45684;SDS011;46836;48.388;16.210;2024-02-15T06:25:14;14.60;;;11.18;;
45684;SDS011;46836;48.388;16.210;2024-02-15T06:27:47;19.75;;;12.70;;
45684;SDS011;46836;48.388;16.210;2024-02-15T06:30:15;19.20;;;13.38;;
45684;SDS011;46836;48.388;16.210;2024-02-15T06:33:00;16.02;;;12.82;;
45684;SDS011;46836;48.388;16.210;2024-02-15T06:35:45;15.40;;;12.60;;
45684;SDS011;46836;48.388;16.210;2024-02-15T06:38:31;17.80;;;12.52;;
45684;SDS011;46836;48.388;16.210;2024-02-15T06:41:17;18.42;;;13.68;;
45684;SDS011;46836;48.388;16.210;2024-02-15T06:43:47;17.52;;;12.30;;
45684;SDS011;46836;48.388;16.210;2024-02-15T06:46:14;15.98;;;12.50;;
45684;SDS011;46836;48.388;16.210;2024-02-15T06:48:42;22.70;;;13.13;;
45684;SDS011;46836;48.388;16.210;2024-02-15T06:51:12;17.15;;;13.50;;
45684;SDS011;46836;48.388;16.210;2024-02-15T06:53:42;18.10;;;13.45;;
45684;SDS011;46836;48.388;16.210;2024-02-15T06:56:10;18.83;;;14.40;;
45684;SDS011;46836;48.388;16.210;2024-02-15T06:58:39;15.00;;;12.70;;
45684;SDS011;46836;48.388;16.210;2024-02-15T07:01:09;20.45;;;13.13;;
45684;SDS011;46836;48.388;16.210;2024-02-15T07:03:37;16.95;;;13.25;;
45684;SDS011;46836;48.388;16.210;2024-02-15T07:06:06;22.42;;;14.13;;
45684;SDS011;46836;48.388;16.210;2024-02-15T07:08:33;16.73;;;13.45;;
45684;SDS011;46836;48.388;16.210;2024-02-15T07:11:00;16.80;;;15.00;;
45684;SDS011;46836;48.388;16.210;2024-02-15T07:13:31;18.27;;;13.35;;
45684;SDS011;46836;48.388;16.210;2024-02-15T07:15:58;16.17;;;14.48;;
45684;SDS011;46836;48.388;16.210;2024-02-15T07:18:25;15.20;;;13.32;;
45684;SDS011;46836;48.388;16.210;2024-02-15T07:20:55;21.40;;;12.95;;
45684;SDS011;46836;48.388;16.210;2024-02-15T07:23:26;32.72;;;17.30;;
45684;SDS011;46836;48.388;16.210;2024-02-15T07:25:54;19.13;;;14.43;;
45684;SDS011;46836;48.388;16.210;2024-02-15T07:28:21;22.35;;;15.52;;
45684;SDS011;46836;48.388;16.210;2024-02-15T07:30:51;26.38;;;16.10;;
45684;SDS011;46836;48.388;16.210;2024-02-15T07:33:19;17.23;;;13.95;;
45684;SDS011;46836;48.388;16.210;2024-02-15T07:35:49;15.93;;;11.65;;
45684;SDS011;46836;48.388;16.210;2024-02-15T07:38:20;15.73;;;12.40;;
45684;SDS011;46836;48.388;16.210;2024-02-15T07:40:52;18.58;;;11.75;;
45684;SDS011;46836;48.388;16.210;2024-02-15T07:43:18;13.82;;;11.13;;
45684;SDS011;46836;48.388;16.210;2024-02-15T07:45:46;18.20;;;13.32;;
45684;SDS011;46836;48.388;16.210;2024-02-15T07:48:15;18.65;;;11.88;;
45684;SDS011;46836;48.388;16.210;2024-02-15T07:50:43;22.75;;;11.77;;
45684;SDS011;46836;48.388;16.210;2024-02-15T07:53:11;16.67;;;11.48;;
45684;SDS011;46836;48.388;16.210;2024-02-15T07:55:40;17.05;;;13.43;;
45684;SDS011;46836;48.388;16.210;2024-02-15T07:58:08;20.60;;;11.70;;
45684;SDS011;46836;48.388;16.210;2024-02-15T08:00:35;13.07;;;10.43;;
45684;SDS011;46836;48.388;16.210;2024-02-15T08:03:04;21.73;;;10.90;;
45684;SDS011;46836;48.388;16.210;2024-02-15T08:05:32;14.82;;;10.27;;
45684;SDS011;46836;48.388;16.210;2024-02-15T08:08:00;14.85;;;10.93;;
45684;SDS011;46836;48.388;16.210;2024-02-15T08:10:26;13.80;;;9.73;;
45684;SDS011;46836;48.388;16.210;2024-02-15T08:12:55;18.75;;;11.95;;
45684;SDS011;46836;48.388;16.210;2024-02-15T08:15:24;22.52;;;11.85;;
45684;SDS011;46836;48.388;16.210;2024-02-15T08:17:55;25.73;;;11.25;;
45684;SDS011;46836;48.388;16.210;2024-02-15T08:20:22;14.40;;;10.73;;
45684;SDS011;46836;48.388;16.210;2024-02-15T08:22:49;15.45;;;11.43;;
45684;SDS011;46836;48.388;16.210;2024-02-15T08:25:16;16.42;;;10.60;;
45684;SDS011;46836;48.388;16.210;2024-02-15T08:27:46;11.88;;;10.02;;
45684;SDS011;46836;48.388;16.210;2024-02-15T08:30:17;16.17;;;10.10;;
45684;SDS011;46836;48.388;16.210;2024-02-15T08:32:50;15.02;;;10.38;;
45684;SDS011;46836;48.388;16.210;2024-02-15T08:35:18;13.95;;;10.25;;
45684;SDS011;46836;48.388;16.210;2024-02-15T08:37:45;21.88;;;12.10;;
45684;SDS011;46836;48.388;16.210;2024-02-15T08:40:14;15.15;;;10.38;;
45684;SDS011;46836;48.388;16.210;2024-02-15T08:42:45;13.35;;;10.18;;
45684;SDS011;46836;48.388;16.210;2024-02-15T08:45:14;11.82;;;8.77;;
45684;SDS011;46836;48.388;16.210;2024-02-15T08:47:42;13.10;;;8.85;;
45684;SDS011;46836;48.388;16.210;2024-02-15T08:50:10;10.85;;;8.57;;
45684;SDS011;46836;48.388;16.210;2024-02-15T08:52:38;11.82;;;8.60;;
45684;SDS011;46836;48.388;16.210;2024-02-15T08:55:07;13.30;;;8.93;;
45684;SDS011;46836;48.388;16.210;2024-02-15T08:57:36;13.15;;;9.20;;
45684;SDS011;46836;48.388;16.210;2024-02-15T09:00:10;15.20;;;9.90;;
45684;SDS011;46836;48.388;16.210;2024-02-15T09:02:43;15.95;;;9.77;;
45684;SDS011;46836;48.388;16.210;2024-02-15T09:05:12;11.95;;;9.43;;
45684;SDS011;46836;48.388;16.210;2024-02-15T09:07:41;10.40;;;8.90;;
45684;SDS011;46836;48.388;16.210;2024-02-15T09:10:10;13.68;;;9.52;;
45684;SDS011;46836;48.388;16.210;2024-02-15T09:12:38;11.85;;;9.70;;
45684;SDS011;46836;48.388;16.210;2024-02-15T09:15:08;16.70;;;10.48;;
45684;SDS011;46836;48.388;16.210;2024-02-15T09:17:37;17.75;;;11.98;;
45684;SDS011;46836;48.388;16.210;2024-02-15T09:20:08;15.00;;;11.40;;
45684;SDS011;46836;48.388;16.210;2024-02-15T09:22:42;11.32;;;10.10;;
45684;SDS011;46836;48.388;16.210;2024-02-15T09:25:14;12.00;;;10.38;;
45684;SDS011;46836;48.388;16.210;2024-02-15T09:27:41;10.70;;;9.60;;
45684;SDS011;46836;48.388;16.210;2024-02-15T09:30:10;12.10;;;10.23;;
45684;SDS011;46836;48.388;16.210;2024-02-15T09:32:39;14.07;;;11.18;;
45684;SDS011;46836;48.388;16.210;2024-02-15T09:35:06;13.15;;;10.52;;
45684;SDS011;46836;48.388;16.210;2024-02-15T09:37:35;14.98;;;11.45;;
45684;SDS011;46836;48.388;16.210;2024-02-15T09:40:07;13.88;;;10.05;;
45684;SDS011;46836;48.388;16.210;2024-02-15T09:42:37;15.77;;;11.65;;
45684;SDS011;46836;48.388;16.210;2024-02-15T09:45:07;15.77;;;11.52;;
45684;SDS011;46836;48.388;16.210;2024-02-15T09:47:39;15.45;;;11.82;;
45684;SDS011;46836;48.388;16.210;2024-02-15T09:52:47;13.30;;;11.15;;
45684;SDS011;46836;48.388;16.210;2024-02-15T09:55:18;18.13;;;12.55;;
45684;SDS011;46836;48.388;16.210;2024-02-15T09:57:50;18.70;;;13.13;;
45684;SDS011;46836;48.388;16.210;2024-02-15T10:00:17;15.60;;;10.75;;
45684;SDS011;46836;48.388;16.210;2024-02-15T10:02:49;14.10;;;10.20;;
45684;SDS011;46836;48.388;16.210;2024-02-15T10:05:19;13.43;;;10.18;;
45684;SDS011;46836;48.388;16.210;2024-02-15T10:07:47;13.32;;;11.23;;
45684;SDS011;46836;48.388;16.210;2024-02-15T10:10:22;15.18;;;10.55;;
45684;SDS011;46836;48.388;16.210;2024-02-15T10:12:52;17.13;;;10.88;;
45684;SDS011;46836;48.388;16.210;2024-02-15T10:15:31;13.10;;;11.68;;
45684;SDS011;46836;48.388;16.210;2024-02-15T10:18:02;14.77;;;9.25;;
45684;SDS011;46836;48.388;16.210;2024-02-15T10:20:36;12.63;;;10.05;;
45684;SDS011;46836;48.388;16.210;2024-02-15T10:25:36;13.25;;;10.63;;
45684;SDS011;46836;48.388;16.210;2024-02-15T10:28:07;13.75;;;10.27;;
45684;SDS011;46836;48.388;16.210;2024-02-15T10:30:36;9.27;;;8.38;;
45684;SDS011;46836;48.388;16.210;2024-02-15T10:33:05;14.75;;;9.38;;
45684;SDS011;46836;48.388;16.210;2024-02-15T10:35:34;10.93;;;9.82;;
45684;SDS011;46836;48.388;16.210;2024-02-15T10:38:07;11.35;;;8.80;;
45684;SDS011;46836;48.388;16.210;2024-02-15T10:40:37;11.52;;;9.73;;
45684;SDS011;46836;48.388;16.210;2024-02-15T10:43:08;9.52;;;7.82;;
45684;SDS011;46836;48.388;16.210;2024-02-15T10:45:40;10.27;;;8.23;;
45684;SDS011;46836;48.388;16.210;2024-02-15T10:48:10;12.13;;;8.70;;
45684;SDS011;46836;48.388;16.210;2024-02-15T10:50:40;9.20;;;8.20;;
45684;SDS011;46836;48.388;16.210;2024-02-15T10:55:48;11.00;;;8.52;;
45684;SDS011;46836;48.388;16.210;2024-02-15T10:58:23;8.68;;;7.72;;
45684;SDS011;46836;48.388;16.210;2024-02-15T11:00:58;11.55;;;8.23;;
45684;SDS011;46836;48.388;16.210;2024-02-15T11:03:27;11.05;;;9.45;;
45684;SDS011;46836;48.388;16.210;2024-02-15T11:06:02;9.02;;;7.95;;
45684;SDS011;46836;48.388;16.210;2024-02-15T11:08:31;8.00;;;6.70;;
45684;SDS011;46836;48.388;16.210;2024-02-15T11:10:59;7.40;;;6.55;;
45684;SDS011;46836;48.388;16.210;2024-02-15T11:13:28;8.75;;;7.95;;
45684;SDS011;46836;48.388;16.210;2024-02-15T11:15:56;9.75;;;7.18;;
45684;SDS011;46836;48.388;16.210;2024-02-15T11:21:13;8.27;;;7.47;;
45684;SDS011;46836;48.388;16.210;2024-02-15T11:24:28;7.30;;;6.60;;
45684;SDS011;46836;48.388;16.210;2024-02-15T11:27:03;6.75;;;5.40;;
45684;SDS011;46836;48.388;16.210;2024-02-15T11:35:23;10.52;;;8.32;;
45684;SDS011;46836;48.388;16.210;2024-02-15T11:37:54;9.05;;;7.05;;
45684;SDS011;46836;48.388;16.210;2024-02-15T11:40:26;7.90;;;7.10;;
45684;SDS011;46836;48.388;16.210;2024-02-15T11:42:56;7.68;;;6.38;;
45684;SDS011;46836;48.388;16.210;2024-02-15T11:45:28;8.00;;;6.32;;
45684;SDS011;46836;48.388;16.210;2024-02-15T11:48:07;6.88;;;6.18;;
45684;SDS011;46836;48.388;16.210;2024-02-15T11:50:39;6.20;;;5.40;;
45684;SDS011;46836;48.388;16.210;2024-02-15T11:53:08;7.05;;;6.22;;
45684;SDS011;46836;48.388;16.210;2024-02-15T11:55:38;5.70;;;5.10;;
45684;SDS011;46836;48.388;16.210;2024-02-15T11:58:07;6.13;;;5.50;;
45684;SDS011;46836;48.388;16.210;2024-02-15T12:00:36;8.88;;;6.00;;
45684;SDS011;46836;48.388;16.210;2024-02-15T12:03:22;7.60;;;5.88;;
45684;SDS011;46836;48.388;16.210;2024-02-15T12:06:26;6.22;;;5.65;;
45684;SDS011;46836;48.388;16.210;2024-02-15T12:09:17;8.07;;;5.32;;
45684;SDS011;46836;48.388;16.210;2024-02-15T12:12:04;6.88;;;6.15;;
45684;SDS011;46836;48.388;16.210;2024-02-15T12:14:49;5.72;;;5.22;;
45684;SDS011;46836;48.388;16.210;2024-02-15T12:17:42;6.30;;;5.43;;
45684;SDS011;46836;48.388;16.210;2024-02-15T12:20:28;6.28;;;5.05;;
45684;SDS011;46836;48.388;16.210;2024-02-15T12:22:55;8.70;;;5.50;;
45684;SDS011;46836;48.388;16.210;2024-02-15T12:25:22;5.85;;;5.20;;
45684;SDS011;46836;48.388;16.210;2024-02-15T12:27:58;5.35;;;4.85;;
45684;SDS011;46836;48.388;16.210;2024-02-15T12:30:26;6.63;;;5.95;;
45684;SDS011;46836;48.388;16.210;2024-02-15T12:33:10;8.57;;;6.57;;
45684;SDS011;46836;48.388;16.210;2024-02-15T12:35:40;6.88;;;6.15;;
45684;SDS011;46836;48.388;16.210;2024-02-15T12:38:09;6.00;;;5.10;;
45684;SDS011;46836;48.388;16.210;2024-02-15T12:40:42;7.80;;;5.50;;
45684;SDS011;46836;48.388;16.210;2024-02-15T12:43:15;7.32;;;5.28;;
45684;SDS011;46836;48.388;16.210;2024-02-15T12:45:43;6.28;;;4.78;;
45684;SDS011;46836;48.388;16.210;2024-02-15T12:48:10;8.25;;;7.45;;
45684;SDS011;46836;48.388;16.210;2024-02-15T12:50:37;8.60;;;7.80;;
45684;SDS011;46836;48.388;16.210;2024-02-15T12:53:05;9.10;;;8.20;;
45684;SDS011;46836;48.388;16.210;2024-02-15T12:55:35;7.60;;;6.88;;
45684;SDS011;46836;48.388;16.210;2024-02-15T12:58:05;8.98;;;6.63;;
45684;SDS011;46836;48.388;16.210;2024-02-15T13:00:37;8.75;;;7.00;;
45684;SDS011;46836;48.388;16.210;2024-02-15T13:03:07;10.65;;;8.50;;
45684;SDS011;46836;48.388;16.210;2024-02-15T13:05:37;8.73;;;7.93;;
45684;SDS011;46836;48.388;16.210;2024-02-15T13:08:05;10.52;;;7.78;;
45684;SDS011;46836;48.388;16.210;2024-02-15T13:10:37;9.05;;;7.70;;
45684;SDS011;46836;48.388;16.210;2024-02-15T13:13:06;8.25;;;7.18;;
45684;SDS011;46836;48.388;16.210;2024-02-15T13:15:36;11.88;;;7.70;;
45684;SDS011;46836;48.388;16.210;2024-02-15T13:18:04;8.07;;;7.28;;
45684;SDS011;46836;48.388;16.210;2024-02-15T13:20:32;8.50;;;7.18;;
45684;SDS011;46836;48.388;16.210;2024-02-15T13:23:02;12.02;;;6.93;;
45684;SDS011;46836;48.388;16.210;2024-02-15T13:25:49;7.68;;;6.60;;
45684;SDS011;46836;48.388;16.210;2024-02-15T13:28:16;8.00;;;6.47;;
45684;SDS011;46836;48.388;16.210;2024-02-15T13:30:45;7.88;;;6.72;;
45684;SDS011;46836;48.388;16.210;2024-02-15T13:33:12;8.20;;;7.10;;
45684;SDS011;46836;48.388;16.210;2024-02-15T13:35:40;9.00;;;7.00;;
45684;SDS011;46836;48.388;16.210;2024-02-15T13:38:08;8.55;;;7.70;;
45684;SDS011;46836;48.388;16.210;2024-02-15T13:40:42;7.95;;;6.72;;
45684;SDS011;46836;48.388;16.210;2024-02-15T13:43:11;10.70;;;8.15;;
45684;SDS011;46836;48.388;16.210;2024-02-15T13:45:39;10.00;;;8.07;;
45684;SDS011;46836;48.388;16.210;2024-02-15T13:48:07;8.85;;;7.97;;
45684;SDS011;46836;48.388;16.210;2024-02-15T13:50:36;9.05;;;8.15;;
45684;SDS011;46836;48.388;16.210;2024-02-15T13:53:06;10.13;;;7.55;;
45684;SDS011;46836;48.388;16.210;2024-02-15T13:55:36;9.85;;;8.85;;
45684;SDS011;46836;48.388;16.210;2024-02-15T13:58:04;9.57;;;8.43;;
45684;SDS011;46836;48.388;16.210;2024-02-15T14:00:31;9.65;;;8.38;;
45684;SDS011;46836;48.388;16.210;2024-02-15T14:03:03;10.82;;;8.25;;
45684;SDS011;46836;48.388;16.210;2024-02-15T14:05:34;9.00;;;8.07;;
45684;SDS011;46836;48.388;16.210;2024-02-15T14:08:03;9.27;;;8.38;;
45684;SDS011;46836;48.388;16.210;2024-02-15T14:10:33;9.80;;;8.00;;
45684;SDS011;46836;48.388;16.210;2024-02-15T14:13:04;9.27;;;8.40;;
45684;SDS011;46836;48.388;16.210;2024-02-15T14:15:36;14.10;;;8.45;;
45684;SDS011;46836;48.388;16.210;2024-02-15T14:18:10;12.35;;;7.82;;
45684;SDS011;46836;48.388;16.210;2024-02-15T14:20:42;10.60;;;9.50;;
45684;SDS011;46836;48.388;16.210;2024-02-15T14:23:10;13.82;;;9.70;;
45684;SDS011;46836;48.388;16.210;2024-02-15T14:25:41;13.68;;;9.45;;
45684;SDS011;46836;48.388;16.210;2024-02-15T14:28:12;10.77;;;8.40;;
45684;SDS011;46836;48.388;16.210;2024-02-15T14:30:41;10.45;;;9.45;;
45684;SDS011;46836;48.388;16.210;2024-02-15T14:33:27;12.73;;;9.45;;
45684;SDS011;46836;48.388;16.210;2024-02-15T14:35:57;14.25;;;10.23;;
45684;SDS011;46836;48.388;16.210;2024-02-15T14:38:27;10.18;;;9.13;;
45684;SDS011;46836;48.388;16.210;2024-02-15T14:40:54;11.07;;;8.57;;
45684;SDS011;46836;48.388;16.210;2024-02-15T14:43:24;10.32;;;8.70;;
45684;SDS011;46836;48.388;16.210;2024-02-15T14:45:54;10.85;;;9.73;;
45684;SDS011;46836;48.388;16.210;2024-02-15T14:48:24;10.70;;;9.63;;
45684;SDS011;46836;48.388;16.210;2024-02-15T14:50:52;8.50;;;7.70;;
45684;SDS011;46836;48.388;16.210;2024-02-15T14:53:20;14.38;;;10.02;;
45684;SDS011;46836;48.388;16.210;2024-02-15T14:55:47;12.95;;;9.82;;
45684;SDS011;46836;48.388;16.210;2024-02-15T14:58:16;11.20;;;9.45;;